createdAt,value
2023-04-15T04:00:50.765Z,5.21
2023-04-15T04:01:51.776Z,5.20
2023-04-15T04:02:51.809Z,5.20
2023-04-15T04:03:54.424Z,5.17
2023-04-15T04:04:51.839Z,5.18
2023-04-15T04:05:51.686Z,5.15
2023-04-15T04:06:51.706Z,5.17
2023-04-15T04:07:51.634Z,5.15
2023-04-15T04:08:51.618Z,5.15
2023-04-15T04:09:51.631Z,5.13
2023-04-15T04:10:51.615Z,5.15
2023-04-15T04:11:51.608Z,5.17
2023-04-15T04:12:51.572Z,5.15
2023-04-15T04:13:51.588Z,5.13
2023-04-15T04:14:51.559Z,5.09
2023-04-15T04:15:51.603Z,5.06
2023-04-15T04:16:51.578Z,5.03
2023-04-15T04:17:51.587Z,5.00
2023-04-15T04:18:51.514Z,4.96
2023-04-15T04:19:51.496Z,4.94
2023-04-15T04:20:51.487Z,4.89
2023-04-15T04:21:51.523Z,4.85
2023-04-15T04:22:51.461Z,4.82
2023-04-15T04:23:51.462Z,4.84
2023-04-15T04:24:51.462Z,4.80
2023-04-15T04:25:51.428Z,4.77
2023-04-15T04:26:51.470Z,4.77
2023-04-15T04:27:51.433Z,4.77
2023-04-15T04:28:52.129Z,4.77
2023-04-15T04:29:51.455Z,4.75
2023-04-15T04:30:51.387Z,4.75
2023-04-15T04:31:51.445Z,4.77
2023-04-15T04:32:51.478Z,4.82
2023-04-15T04:33:51.344Z,4.80
2023-04-15T04:34:51.340Z,4.85
2023-04-15T04:35:51.757Z,4.84
2023-04-15T04:36:51.323Z,4.89
2023-04-15T04:37:51.328Z,4.88
2023-04-15T04:38:51.297Z,4.88
2023-04-15T04:39:51.280Z,4.88
2023-04-15T04:40:51.300Z,4.86
2023-04-15T04:41:51.254Z,4.89
2023-04-15T04:42:51.234Z,4.88
2023-04-15T04:43:51.227Z,4.86
2023-04-15T04:44:51.220Z,4.86
2023-04-15T04:45:51.286Z,4.82
2023-04-15T04:46:51.195Z,4.80
2023-04-15T04:47:51.286Z,4.80
2023-04-15T04:48:51.169Z,4.85
2023-04-15T04:49:51.185Z,4.85
2023-04-15T04:50:51.168Z,4.91
2023-04-15T04:51:51.185Z,4.92
2023-04-15T04:52:51.159Z,4.92
2023-04-15T04:53:51.138Z,4.94
2023-04-15T04:54:51.116Z,4.92
2023-04-15T04:55:51.171Z,4.94
2023-04-15T04:56:51.158Z,4.94
2023-04-15T04:57:51.113Z,4.96
2023-04-15T04:58:51.107Z,5.03
2023-04-15T04:59:51.093Z,5.06
2023-04-15T05:00:51.115Z,5.06
2023-04-15T05:01:51.058Z,5.10
2023-04-15T05:02:51.135Z,5.15
2023-04-15T05:03:51.082Z,5.18
2023-04-15T05:04:51.009Z,5.20
2023-04-15T05:05:51.059Z,5.20
2023-04-15T05:06:51.004Z,5.22
2023-04-15T05:07:51.016Z,5.27
2023-04-15T05:08:50.965Z,5.38
2023-04-15T05:09:50.998Z,5.45
2023-04-15T05:10:50.947Z,5.56
2023-04-15T05:11:50.963Z,5.63
2023-04-15T05:12:50.918Z,5.67
2023-04-15T05:13:50.931Z,5.76
2023-04-15T05:14:50.940Z,5.81
2023-04-15T05:15:50.985Z,5.85
2023-04-15T05:16:50.913Z,5.89
2023-04-15T05:17:50.935Z,5.96
2023-04-15T05:18:50.840Z,5.99
2023-04-15T05:19:50.848Z,6.00
2023-04-15T05:20:50.850Z,6.06
2023-04-15T05:21:50.817Z,6.06
2023-04-15T05:22:50.813Z,6.11
2023-04-15T05:23:50.843Z,6.12
2023-04-15T05:24:50.795Z,6.14
2023-04-15T05:25:50.777Z,6.17
2023-04-15T05:26:50.777Z,6.17
2023-04-15T05:27:50.767Z,6.21
2023-04-15T05:28:50.741Z,6.22
2023-04-15T05:29:50.756Z,6.25
2023-04-15T05:30:50.764Z,6.27
2023-04-15T05:31:50.730Z,6.27
2023-04-15T05:32:50.737Z,6.25
2023-04-15T05:33:50.718Z,6.25
2023-04-15T05:34:50.682Z,6.25
2023-04-15T05:35:50.708Z,6.30
2023-04-15T05:36:50.669Z,6.30
2023-04-15T05:37:50.640Z,6.28
2023-04-15T05:38:50.663Z,6.30
2023-04-15T05:39:50.636Z,6.38
2023-04-15T05:40:50.673Z,6.40
2023-04-15T05:41:50.627Z,6.46
2023-04-15T05:42:50.632Z,6.48
2023-04-15T05:43:50.596Z,6.48
2023-04-15T05:44:50.596Z,6.49
2023-04-15T05:45:50.586Z,6.51
2023-04-15T05:46:50.574Z,6.51
2023-04-15T05:47:50.632Z,6.52
2023-04-15T05:48:50.546Z,6.59
2023-04-15T05:49:50.525Z,6.62
2023-04-15T05:50:50.522Z,6.64
2023-04-15T05:51:50.500Z,6.66
2023-04-15T05:52:50.488Z,6.67
2023-04-15T05:53:50.488Z,6.69
2023-04-15T05:54:50.508Z,6.66
2023-04-15T05:55:50.448Z,6.69
2023-04-15T05:56:50.456Z,6.71
2023-04-15T05:57:50.490Z,6.73
2023-04-15T05:58:51.904Z,6.76
2023-04-15T05:59:50.440Z,6.71
2023-04-15T06:00:50.413Z,6.73
2023-04-15T06:01:50.518Z,6.73
2023-04-15T06:02:50.543Z,6.73
2023-04-15T06:03:50.500Z,6.79
2023-04-15T06:04:50.440Z,6.77
2023-04-15T06:05:50.378Z,6.81
2023-04-15T06:06:50.371Z,6.80
2023-04-15T06:07:50.348Z,6.81
2023-04-15T06:08:50.359Z,6.81
2023-04-15T06:09:50.348Z,6.88
2023-04-15T06:10:50.337Z,6.88
2023-04-15T06:11:50.322Z,6.89
2023-04-15T06:12:50.316Z,6.91
2023-04-15T06:13:50.276Z,6.94
2023-04-15T06:14:50.292Z,6.98
2023-04-15T06:15:50.315Z,6.97
2023-04-15T06:16:50.286Z,6.92
2023-04-15T06:17:50.329Z,6.94
2023-04-15T06:18:50.268Z,6.97
2023-04-15T06:19:50.204Z,6.98
2023-04-15T06:20:50.225Z,6.99
2023-04-15T06:21:50.220Z,7.03
2023-04-15T06:22:50.205Z,7.10
2023-04-15T06:23:50.168Z,7.15
2023-04-15T06:24:50.171Z,7.17
2023-04-15T06:25:50.175Z,7.17
2023-04-15T06:26:50.153Z,7.17
2023-04-15T06:27:50.125Z,7.21
2023-04-15T06:28:50.142Z,7.25
2023-04-15T06:29:50.099Z,7.28
2023-04-15T06:30:50.108Z,7.30
2023-04-15T06:31:50.132Z,7.25
2023-04-15T06:32:50.149Z,7.28
2023-04-15T06:33:50.076Z,7.34
2023-04-15T06:34:50.076Z,7.40
2023-04-15T06:35:50.103Z,7.45
2023-04-15T06:36:50.027Z,7.48
2023-04-15T06:37:50.040Z,7.52
2023-04-15T06:38:50.007Z,7.53
2023-04-15T06:39:49.986Z,7.53
2023-04-15T06:40:50.023Z,7.60
2023-04-15T06:41:49.969Z,7.68
2023-04-15T06:42:49.960Z,7.75
2023-04-15T06:43:49.941Z,7.82
2023-04-15T06:44:49.949Z,7.75
2023-04-15T06:45:49.997Z,7.67
2023-04-15T06:46:49.915Z,7.60
2023-04-15T06:47:49.964Z,7.53
2023-04-15T06:48:49.900Z,7.50
2023-04-15T06:49:49.890Z,7.55
2023-04-15T06:50:49.913Z,7.68
2023-04-15T06:51:49.859Z,7.67
2023-04-15T06:52:49.868Z,7.68
2023-04-15T06:53:49.847Z,7.77
2023-04-15T06:54:49.888Z,7.80
2023-04-15T06:55:49.870Z,7.87
2023-04-15T06:56:49.827Z,7.89
2023-04-15T06:57:49.795Z,7.74
2023-04-15T06:58:49.796Z,7.75
2023-04-15T06:59:49.774Z,7.85
2023-04-15T07:00:49.800Z,7.89
2023-04-15T07:01:49.779Z,8.00
2023-04-15T07:02:49.759Z,8.05
2023-04-15T07:03:49.745Z,8.18
2023-04-15T07:04:49.759Z,8.29
2023-04-15T07:05:49.761Z,8.25
2023-04-15T07:06:49.730Z,8.33
2023-04-15T07:07:49.732Z,8.33
2023-04-15T07:08:49.677Z,8.40
2023-04-15T07:09:49.691Z,8.48
2023-04-15T07:10:49.681Z,8.47
2023-04-15T07:11:49.664Z,8.66
2023-04-15T07:12:49.656Z,8.79
2023-04-15T07:13:49.643Z,8.84
2023-04-15T07:14:49.656Z,8.86
2023-04-15T07:15:49.614Z,8.94
2023-04-15T07:16:49.607Z,8.79
2023-04-15T07:17:49.676Z,8.87
2023-04-15T07:18:49.567Z,8.94
2023-04-15T07:19:49.574Z,8.63
2023-04-15T07:20:49.552Z,8.56
2023-04-15T07:21:49.546Z,8.65
2023-04-15T07:22:49.532Z,8.66
2023-04-15T07:23:49.525Z,8.86
2023-04-15T07:24:49.576Z,8.96
2023-04-15T07:25:49.505Z,8.87
2023-04-15T07:26:49.526Z,8.77
2023-04-15T07:27:49.528Z,8.84
2023-04-15T07:28:49.474Z,8.73
2023-04-15T07:29:49.464Z,8.71
2023-04-15T07:30:49.481Z,8.77
2023-04-15T07:31:49.435Z,8.81
2023-04-15T07:32:49.494Z,8.81
2023-04-15T07:33:49.405Z,8.83
2023-04-15T07:34:49.411Z,8.74
2023-04-15T07:35:49.397Z,8.71
2023-04-15T07:36:49.398Z,8.71
2023-04-15T07:37:49.364Z,8.76
2023-04-15T07:38:49.355Z,8.73
2023-04-15T07:39:49.397Z,8.65
2023-04-15T07:40:49.361Z,8.66
2023-04-15T07:41:49.348Z,8.66
2023-04-15T07:42:49.446Z,8.63
2023-04-15T07:43:49.296Z,8.58
2023-04-15T07:44:49.326Z,8.62
2023-04-15T07:45:49.307Z,8.77
2023-04-15T07:46:49.284Z,8.87
2023-04-15T07:47:49.281Z,8.74
2023-04-15T07:48:49.278Z,8.76
2023-04-15T07:49:49.251Z,8.63
2023-04-15T07:50:49.242Z,8.63
2023-04-15T07:51:49.207Z,8.65
2023-04-15T07:52:49.214Z,8.66
2023-04-15T07:53:49.191Z,8.53
2023-04-15T07:54:49.227Z,8.40
2023-04-15T07:55:49.200Z,8.36
2023-04-15T07:56:49.161Z,8.40
2023-04-15T07:57:49.154Z,8.45
2023-04-15T07:58:49.134Z,8.40
2023-04-15T07:59:49.153Z,8.50
2023-04-15T08:00:49.126Z,8.71
2023-04-15T08:01:49.187Z,8.74
2023-04-15T08:02:49.448Z,8.63
2023-04-15T08:03:49.235Z,8.66
2023-04-15T08:04:49.193Z,8.73
2023-04-15T08:05:49.126Z,8.96
2023-04-15T08:06:49.058Z,9.14
2023-04-15T08:07:49.057Z,9.28
2023-04-15T08:08:49.034Z,9.42
2023-04-15T08:09:49.064Z,9.53
2023-04-15T08:10:50.750Z,9.51
2023-04-15T08:11:49.061Z,9.33
2023-04-15T08:12:48.990Z,8.94
2023-04-15T08:13:48.975Z,8.84
2023-04-15T08:14:49.000Z,8.79
2023-04-15T08:15:49.058Z,8.77
2023-04-15T08:16:48.976Z,8.70
2023-04-15T08:17:48.988Z,8.68
2023-04-15T08:18:48.926Z,8.81
2023-04-15T08:19:48.959Z,8.84
2023-04-15T08:20:48.899Z,8.80
2023-04-15T08:21:48.920Z,8.77
2023-04-15T08:22:48.889Z,8.79
2023-04-15T08:23:48.885Z,8.81
2023-04-15T08:24:48.858Z,8.91
2023-04-15T08:25:48.862Z,8.89
2023-04-15T08:26:48.844Z,8.94
2023-04-15T08:27:48.825Z,9.14
2023-04-15T08:28:48.807Z,9.31
2023-04-15T08:29:48.819Z,9.21
2023-04-15T08:30:48.861Z,8.96
2023-04-15T08:31:48.829Z,8.68
2023-04-15T08:32:48.803Z,8.77
2023-04-15T08:33:48.768Z,8.84
2023-04-15T08:34:48.784Z,8.98
2023-04-15T08:35:48.775Z,9.02
2023-04-15T08:36:48.724Z,9.05
2023-04-15T08:37:48.749Z,8.94
2023-04-15T08:38:48.702Z,8.77
2023-04-15T08:39:48.720Z,8.70
2023-04-15T08:40:48.712Z,8.66
2023-04-15T08:41:48.678Z,8.58
2023-04-15T08:42:48.673Z,8.59
2023-04-15T08:43:48.654Z,8.66
2023-04-15T08:44:48.659Z,8.77
2023-04-15T08:45:48.669Z,8.77
2023-04-15T08:46:48.656Z,8.80
2023-04-15T08:47:48.639Z,8.71
2023-04-15T08:48:48.607Z,8.63
2023-04-15T08:49:48.602Z,8.66
2023-04-15T08:50:48.613Z,8.50
2023-04-15T08:51:48.581Z,8.44
2023-04-15T08:52:48.567Z,8.52
2023-04-15T08:53:48.548Z,8.56
2023-04-15T08:54:48.543Z,8.58
2023-04-15T08:55:48.773Z,8.48
2023-04-15T08:56:48.543Z,8.52
2023-04-15T08:57:48.489Z,8.59
2023-04-15T08:58:48.527Z,8.61
2023-04-15T08:59:48.496Z,8.48
2023-04-15T09:00:48.529Z,8.47
2023-04-15T09:01:48.476Z,8.44
2023-04-15T09:02:48.571Z,8.33
2023-04-15T09:03:48.850Z,8.44
2023-04-15T09:04:55.017Z,8.52
2023-04-15T09:05:48.443Z,8.55
2023-04-15T09:06:48.426Z,8.59
2023-04-15T09:07:48.423Z,8.58
2023-04-15T09:08:48.400Z,8.59
2023-04-15T09:09:48.418Z,8.62
2023-04-15T09:10:48.389Z,8.66
2023-04-15T09:11:48.380Z,8.76
2023-04-15T09:12:48.366Z,8.68
2023-04-15T09:13:48.350Z,8.76
2023-04-15T09:14:48.342Z,8.73
2023-04-15T09:15:48.341Z,8.73
2023-04-15T09:16:50.368Z,8.55
2023-04-15T09:17:48.327Z,8.53
2023-04-15T09:18:48.299Z,8.45
2023-04-15T09:19:48.286Z,8.40
2023-04-15T09:20:48.294Z,8.50
2023-04-15T09:21:48.259Z,8.50
2023-04-15T09:22:48.279Z,8.55
2023-04-15T09:23:48.251Z,8.43
2023-04-15T09:24:48.241Z,8.44
2023-04-15T09:25:48.253Z,8.34
2023-04-15T09:26:48.212Z,8.34
2023-04-15T09:27:48.192Z,8.40
2023-04-15T09:28:48.195Z,8.40
2023-04-15T09:29:48.178Z,8.44
2023-04-15T09:30:49.810Z,8.44
2023-04-15T09:31:48.191Z,8.38
2023-04-15T09:32:48.170Z,8.43
2023-04-15T09:33:48.128Z,8.29
2023-04-15T09:34:48.148Z,8.29
2023-04-15T09:35:48.158Z,8.38
2023-04-15T09:36:49.799Z,8.41
2023-04-15T09:37:48.083Z,8.47
2023-04-15T09:38:48.089Z,8.47
2023-04-15T09:39:48.060Z,8.44
2023-04-15T09:40:48.073Z,8.43
2023-04-15T09:41:48.041Z,8.33
2023-04-15T09:42:48.697Z,8.29
2023-04-15T09:43:48.023Z,8.33
2023-04-15T09:44:48.006Z,8.30
2023-04-15T09:45:48.066Z,8.30
2023-04-15T09:46:47.984Z,8.40
2023-04-15T09:47:48.041Z,8.37
2023-04-15T09:48:47.963Z,8.37
2023-04-15T09:49:48.008Z,8.43
2023-04-15T09:50:47.955Z,8.45
2023-04-15T09:51:57.973Z,8.43
2023-04-15T09:52:47.921Z,8.40
2023-04-15T09:53:47.924Z,8.40
2023-04-15T09:54:47.904Z,8.40
2023-04-15T09:55:47.942Z,8.34
2023-04-15T09:56:47.877Z,8.33
2023-04-15T09:57:47.875Z,8.38
2023-04-15T09:58:47.858Z,8.43
2023-04-15T09:59:47.875Z,8.37
2023-04-15T10:00:47.864Z,8.38
2023-04-15T10:01:47.983Z,8.41
2023-04-15T10:02:47.961Z,8.50
2023-04-15T10:03:47.915Z,8.43
2023-04-15T10:04:47.790Z,8.40
2023-04-15T10:05:47.849Z,8.43
2023-04-15T10:06:47.771Z,8.43
2023-04-15T10:07:47.766Z,8.45
2023-04-15T10:08:47.793Z,8.43
2023-04-15T10:09:47.739Z,8.40
2023-04-15T10:10:47.739Z,8.34
2023-04-15T10:11:47.727Z,8.33
2023-04-15T10:12:47.703Z,8.36
2023-04-15T10:13:47.707Z,8.38
2023-04-15T10:14:47.679Z,8.41
2023-04-15T10:15:47.720Z,8.43
2023-04-15T10:16:47.663Z,8.47
2023-04-15T10:17:47.707Z,8.36
2023-04-15T10:18:47.672Z,8.37
2023-04-15T10:19:47.639Z,8.30
2023-04-15T10:20:47.640Z,8.28
2023-04-15T10:21:47.624Z,8.26
2023-04-15T10:22:47.606Z,8.28
2023-04-15T10:23:47.595Z,8.30
2023-04-15T10:24:47.583Z,8.30
2023-04-15T10:25:47.599Z,8.34
2023-04-15T10:26:47.568Z,8.38
2023-04-15T10:27:47.558Z,8.34
2023-04-15T10:28:47.543Z,8.40
2023-04-15T10:29:47.539Z,8.40
2023-04-15T10:30:47.534Z,8.37
2023-04-15T10:31:47.565Z,8.37
2023-04-15T10:32:47.507Z,8.37
2023-04-15T10:33:47.509Z,8.36
2023-04-15T10:34:47.476Z,8.38
2023-04-15T10:35:47.501Z,8.38
2023-04-15T10:36:47.468Z,8.36
2023-04-15T10:37:47.463Z,8.41
2023-04-15T10:38:47.461Z,8.52
2023-04-15T10:39:47.459Z,8.50
2023-04-15T10:40:47.426Z,8.58
2023-04-15T10:41:47.410Z,8.63
2023-04-15T10:42:47.390Z,8.59
2023-04-15T10:43:47.390Z,8.53
2023-04-15T10:44:47.370Z,8.53
2023-04-15T10:45:47.429Z,8.50
2023-04-15T10:46:47.386Z,8.55
2023-04-15T10:47:47.363Z,8.56
2023-04-15T10:48:47.314Z,8.56
2023-04-15T10:49:47.348Z,8.53
2023-04-15T10:50:47.301Z,8.50
2023-04-15T10:51:47.315Z,8.50
2023-04-15T10:52:47.275Z,8.52
2023-04-15T10:53:47.268Z,8.53
2023-04-15T10:54:47.258Z,8.59
2023-04-15T10:55:47.303Z,8.56
2023-04-15T10:56:47.257Z,8.52
2023-04-15T10:57:47.233Z,8.47
2023-04-15T10:58:47.211Z,8.52
2023-04-15T10:59:47.212Z,8.53
2023-04-15T11:00:47.217Z,8.53
2023-04-15T11:01:47.271Z,8.55
2023-04-15T11:02:47.296Z,8.48
2023-04-15T11:03:47.386Z,8.53
2023-04-15T11:04:47.237Z,8.52
2023-04-15T11:05:47.156Z,8.48
2023-04-15T11:06:47.129Z,8.53
2023-04-15T11:07:47.136Z,8.50
2023-04-15T11:08:47.114Z,8.55
2023-04-15T11:09:47.102Z,8.58
2023-04-15T11:10:47.138Z,8.58
2023-04-15T11:11:47.087Z,8.58
2023-04-15T11:12:47.058Z,8.62
2023-04-15T11:13:47.064Z,8.55
2023-04-15T11:14:47.068Z,8.56
2023-04-15T11:15:47.075Z,8.58
2023-04-15T11:16:47.073Z,8.58
2023-04-15T11:17:47.021Z,8.58
2023-04-15T11:18:47.004Z,8.59
2023-04-15T11:19:46.990Z,8.62
2023-04-15T11:20:46.997Z,8.68
2023-04-15T11:21:46.990Z,8.73
2023-04-15T11:22:46.956Z,8.68
2023-04-15T11:23:47.123Z,8.68
2023-04-15T11:24:46.973Z,8.70
2023-04-15T11:25:47.020Z,8.71
2023-04-15T11:26:46.907Z,8.74
2023-04-15T11:27:46.906Z,8.77
2023-04-15T11:28:46.892Z,8.76
2023-04-15T11:29:46.887Z,8.77
2023-04-15T11:30:46.905Z,8.77
2023-04-15T11:31:46.898Z,8.74
2023-04-15T11:32:46.860Z,8.74
2023-04-15T11:33:46.856Z,8.73
2023-04-15T11:34:46.845Z,8.71
2023-04-15T11:35:46.814Z,8.70
2023-04-15T11:36:46.810Z,8.76
2023-04-15T11:37:46.810Z,8.76
2023-04-15T11:38:46.805Z,8.76
2023-04-15T11:39:46.799Z,8.76
2023-04-15T11:40:47.366Z,8.74
2023-04-15T11:41:46.764Z,8.70
2023-04-15T11:42:49.919Z,8.65
2023-04-15T11:43:46.740Z,8.65
2023-04-15T11:44:46.785Z,8.65
2023-04-15T11:45:46.737Z,8.73
2023-04-15T11:46:46.732Z,8.77
2023-04-15T11:47:46.841Z,8.79
2023-04-15T11:48:46.738Z,8.86
2023-04-15T11:49:46.680Z,8.76
2023-04-15T11:50:46.657Z,8.74
2023-04-15T11:51:46.661Z,8.80
2023-04-15T11:52:46.646Z,8.80
2023-04-15T11:53:46.663Z,8.74
2023-04-15T11:54:46.692Z,8.81
2023-04-15T11:55:46.644Z,8.87
2023-04-15T11:56:46.593Z,8.84
2023-04-15T11:57:46.611Z,8.86
2023-04-15T11:58:46.709Z,8.89
2023-04-15T11:59:46.632Z,8.94
2023-04-15T12:00:46.549Z,8.91
2023-04-15T12:01:46.662Z,8.94
2023-04-15T12:02:46.729Z,8.94
2023-04-15T12:03:46.769Z,8.98
2023-04-15T12:04:46.627Z,8.95
2023-04-15T12:05:46.509Z,8.96
2023-04-15T12:06:46.488Z,8.96
2023-04-15T12:07:46.498Z,8.92
2023-04-15T12:08:46.467Z,8.94
2023-04-15T12:09:46.543Z,8.89
2023-04-15T12:10:46.456Z,8.91
2023-04-15T12:11:46.435Z,8.86
2023-04-15T12:12:46.423Z,8.91
2023-04-15T12:13:46.416Z,8.92
2023-04-15T12:14:46.412Z,8.94
2023-04-15T12:15:46.434Z,8.95
2023-04-15T12:16:49.748Z,8.92
2023-04-15T12:17:51.444Z,8.89
2023-04-15T12:18:46.364Z,8.94
2023-04-15T12:19:46.375Z,8.94
2023-04-15T12:20:46.359Z,8.96
2023-04-15T12:21:46.340Z,8.94
2023-04-15T12:22:46.340Z,8.95
2023-04-15T12:23:46.305Z,8.92
2023-04-15T12:24:46.340Z,8.91
2023-04-15T12:25:46.288Z,8.92
2023-04-15T12:26:46.268Z,8.92
2023-04-15T12:27:46.269Z,8.96
2023-04-15T12:28:46.261Z,8.95
2023-04-15T12:29:46.264Z,8.98
2023-04-15T12:30:46.226Z,9.02
2023-04-15T12:31:46.276Z,9.11
2023-04-15T12:32:46.248Z,9.08
2023-04-15T12:33:46.194Z,9.10
2023-04-15T12:34:46.202Z,9.01
2023-04-15T12:35:46.186Z,8.98
2023-04-15T12:36:46.175Z,9.02
2023-04-15T12:37:46.158Z,9.13
2023-04-15T12:38:46.141Z,9.21
2023-04-15T12:39:46.164Z,9.13
2023-04-15T12:40:46.128Z,9.13
2023-04-15T12:41:46.123Z,9.14
2023-04-15T12:42:46.107Z,9.20
2023-04-15T12:43:46.097Z,9.13
2023-04-15T12:44:46.112Z,9.08
2023-04-15T12:45:46.074Z,9.01
2023-04-15T12:46:46.107Z,8.99
2023-04-15T12:47:46.082Z,8.99
2023-04-15T12:48:46.041Z,9.05
2023-04-15T12:49:46.072Z,9.04
2023-04-15T12:50:46.024Z,8.98
2023-04-15T12:51:46.000Z,8.98
2023-04-15T12:52:45.992Z,9.02
2023-04-15T12:53:45.990Z,9.02
2023-04-15T12:54:46.309Z,8.98
2023-04-15T12:55:45.975Z,8.92
2023-04-15T12:56:45.955Z,8.95
2023-04-15T12:57:45.976Z,8.98
2023-04-15T12:58:45.926Z,8.95
2023-04-15T12:59:45.940Z,8.96
2023-04-15T13:00:45.907Z,8.94
2023-04-15T13:01:45.936Z,8.91
2023-04-15T13:02:46.030Z,8.83
2023-04-15T13:03:46.028Z,8.89
2023-04-15T13:04:45.884Z,8.87
2023-04-15T13:05:45.894Z,8.92
2023-04-15T13:06:45.848Z,8.96
2023-04-15T13:07:45.850Z,8.95
2023-04-15T13:08:57.327Z,8.84
2023-04-15T13:09:45.840Z,8.84
2023-04-15T13:10:45.813Z,8.89
2023-04-15T13:11:45.800Z,8.92
2023-04-15T13:12:45.775Z,8.86
2023-04-15T13:13:45.774Z,8.91
2023-04-15T13:14:45.790Z,8.94
2023-04-15T13:15:45.896Z,8.92
2023-04-15T13:16:45.729Z,8.86
2023-04-15T13:17:45.790Z,8.83
2023-04-15T13:18:45.718Z,8.86
2023-04-15T13:19:45.746Z,8.87
2023-04-15T13:20:45.700Z,8.92
2023-04-15T13:21:45.700Z,8.91
2023-04-15T13:22:45.678Z,8.86
2023-04-15T13:23:45.666Z,8.92
2023-04-15T13:24:45.664Z,8.89
2023-04-15T13:25:45.647Z,8.86
2023-04-15T13:26:45.650Z,8.86
2023-04-15T13:27:45.619Z,8.84
2023-04-15T13:28:45.628Z,8.86
2023-04-15T13:29:45.621Z,8.87
2023-04-15T13:30:45.574Z,8.91
2023-04-15T13:31:45.619Z,8.95
2023-04-15T13:32:45.690Z,8.91
2023-04-15T13:33:45.541Z,8.94
2023-04-15T13:34:45.575Z,8.86
2023-04-15T13:35:45.551Z,8.84
2023-04-15T13:36:45.522Z,8.84
2023-04-15T13:37:45.526Z,8.81
2023-04-15T13:38:45.504Z,8.83
2023-04-15T13:39:45.487Z,8.87
2023-04-15T13:40:45.508Z,8.89
2023-04-15T13:41:45.472Z,8.92
2023-04-15T13:42:45.459Z,8.96
2023-04-15T13:43:45.448Z,8.89
2023-04-15T13:44:45.458Z,8.81
2023-04-15T13:45:45.440Z,8.86
2023-04-15T13:46:45.420Z,8.84
2023-04-15T13:47:45.472Z,8.84
2023-04-15T13:48:45.391Z,8.89
2023-04-15T13:49:45.432Z,8.87
2023-04-15T13:50:45.456Z,8.95
2023-04-15T13:51:45.379Z,8.89
2023-04-15T13:52:45.358Z,8.84
2023-04-15T13:53:45.330Z,8.81
2023-04-15T13:54:45.334Z,8.76
2023-04-15T13:55:45.342Z,8.76
2023-04-15T13:56:45.323Z,8.76
2023-04-15T13:57:45.298Z,8.77
2023-04-15T13:58:45.289Z,8.79
2023-04-15T13:59:45.302Z,8.81
2023-04-15T14:00:45.310Z,8.81
2023-04-15T14:01:45.341Z,8.81
2023-04-15T14:02:45.319Z,8.83
2023-04-15T14:03:45.369Z,8.86
2023-04-15T14:04:45.237Z,8.87
2023-04-15T14:05:45.211Z,8.86
2023-04-15T14:06:45.208Z,8.91
2023-04-15T14:07:45.296Z,8.87
2023-04-15T14:08:45.175Z,8.86
2023-04-15T14:09:45.192Z,8.92
2023-04-15T14:10:45.147Z,8.96
2023-04-15T14:11:45.159Z,8.98
2023-04-15T14:12:45.133Z,8.86
2023-04-15T14:13:45.123Z,8.81
2023-04-15T14:14:45.123Z,8.77
2023-04-15T14:15:45.092Z,8.77
2023-04-15T14:16:45.138Z,8.74
2023-04-15T14:17:45.111Z,8.77
2023-04-15T14:18:45.064Z,8.77
2023-04-15T14:19:45.069Z,8.79
2023-04-15T14:20:45.047Z,8.79
2023-04-15T14:21:45.031Z,8.81
2023-04-15T14:22:45.023Z,8.84
2023-04-15T14:23:45.024Z,8.86
2023-04-15T14:24:45.015Z,8.89
2023-04-15T14:25:47.480Z,8.89
2023-04-15T14:26:44.984Z,8.94
2023-04-15T14:27:44.962Z,8.89
2023-04-15T14:28:45.146Z,8.89
2023-04-15T14:29:44.953Z,8.89
2023-04-15T14:30:45.030Z,8.89
2023-04-15T14:31:44.927Z,8.86
2023-04-15T14:32:45.624Z,8.80
2023-04-15T14:33:44.903Z,8.79
2023-04-15T14:34:44.901Z,8.76
2023-04-15T14:35:44.892Z,8.77
2023-04-15T14:36:44.888Z,8.77
2023-04-15T14:37:44.846Z,8.79
2023-04-15T14:38:45.786Z,8.79
2023-04-15T14:39:44.848Z,8.83
2023-04-15T14:40:44.826Z,8.84
2023-04-15T14:41:44.835Z,8.79
2023-04-15T14:42:44.802Z,8.76
2023-04-15T14:43:44.827Z,8.79
2023-04-15T14:44:44.838Z,8.77
2023-04-15T14:45:45.544Z,8.73
2023-04-15T14:46:44.840Z,8.74
2023-04-15T14:47:44.899Z,8.77
2023-04-15T14:48:44.772Z,8.77
2023-04-15T14:49:44.717Z,8.76
2023-04-15T14:50:44.728Z,8.76
2023-04-15T14:51:44.708Z,8.77
2023-04-15T14:52:44.702Z,8.79
2023-04-15T14:53:44.735Z,8.77
2023-04-15T14:54:44.691Z,8.73
2023-04-15T14:55:44.686Z,8.73
2023-04-15T14:56:44.662Z,8.71
2023-04-15T14:57:44.650Z,8.71
2023-04-15T14:58:44.636Z,8.73
2023-04-15T14:59:44.631Z,8.73
2023-04-15T15:00:44.681Z,8.68
2023-04-15T15:01:44.664Z,8.68
2023-04-15T15:02:44.688Z,8.66
2023-04-15T15:03:44.659Z,8.70
2023-04-15T15:04:44.642Z,8.71
2023-04-15T15:05:44.791Z,8.74
2023-04-15T15:06:44.898Z,8.70
2023-04-15T15:07:44.543Z,8.73
2023-04-15T15:08:44.538Z,8.71
2023-04-15T15:09:44.541Z,8.68
2023-04-15T15:10:48.232Z,8.71
2023-04-15T15:11:44.548Z,8.70
2023-04-15T15:12:44.490Z,8.66
2023-04-15T15:13:44.464Z,8.68
2023-04-15T15:14:44.478Z,8.68
2023-04-15T15:15:44.489Z,8.73
2023-04-15T15:16:44.466Z,8.73
2023-04-15T15:17:44.469Z,8.71
2023-04-15T15:18:44.452Z,8.70
2023-04-15T15:19:44.412Z,8.71
2023-04-15T15:20:44.418Z,8.71
2023-04-15T15:21:44.422Z,8.66
2023-04-15T15:22:44.373Z,8.71
2023-04-15T15:23:44.394Z,8.68
2023-04-15T15:24:44.364Z,8.70
2023-04-15T15:25:44.344Z,8.68
2023-04-15T15:26:44.339Z,8.71
2023-04-15T15:27:44.316Z,8.68
2023-04-15T15:28:44.345Z,8.70
2023-04-15T15:29:44.301Z,8.66
2023-04-15T15:30:44.317Z,8.68
2023-04-15T15:31:44.323Z,8.66
2023-04-15T15:32:44.336Z,8.68
2023-04-15T15:33:44.377Z,8.65
2023-04-15T15:34:44.267Z,8.65
2023-04-15T15:35:44.248Z,8.66
2023-04-15T15:36:44.281Z,8.63
2023-04-15T15:37:44.236Z,8.68
2023-04-15T15:38:44.243Z,8.68
2023-04-15T15:39:44.191Z,8.66
2023-04-15T15:40:44.211Z,8.65
2023-04-15T15:41:44.178Z,8.65
2023-04-15T15:42:44.190Z,8.59
2023-04-15T15:43:44.176Z,8.62
2023-04-15T15:44:44.138Z,8.61
2023-04-15T15:45:44.143Z,8.61
2023-04-15T15:46:44.182Z,8.59
2023-04-15T15:47:44.191Z,8.61
2023-04-15T15:48:44.104Z,8.62
2023-04-15T15:49:44.095Z,8.62
2023-04-15T15:50:44.075Z,8.61
2023-04-15T15:51:44.089Z,8.61
2023-04-15T15:52:44.074Z,8.56
2023-04-15T15:53:44.047Z,8.58
2023-04-15T15:54:44.031Z,8.61
2023-04-15T15:55:44.016Z,8.61
2023-04-15T15:56:44.062Z,8.56
2023-04-15T15:57:44.009Z,8.58
2023-04-15T15:58:44.008Z,8.58
2023-04-15T15:59:43.974Z,8.56
2023-04-15T16:00:44.010Z,8.56
2023-04-15T16:01:43.999Z,8.58
2023-04-15T16:03:44.092Z,8.59
2023-04-15T16:04:43.954Z,8.58
2023-04-15T16:05:43.927Z,8.59
2023-04-15T16:06:43.941Z,8.58
2023-04-15T16:07:43.965Z,8.56
2023-04-15T16:08:43.877Z,8.58
2023-04-15T16:09:43.870Z,8.59
2023-04-15T16:10:43.857Z,8.55
2023-04-15T16:11:43.848Z,8.58
2023-04-15T16:12:43.859Z,8.58
2023-04-15T16:13:43.833Z,8.53
2023-04-15T16:14:43.820Z,8.53
2023-04-15T16:15:43.801Z,8.55
2023-04-15T16:16:43.889Z,8.52
2023-04-15T16:17:43.818Z,8.52
2023-04-15T16:18:43.778Z,8.50
2023-04-15T16:19:59.861Z,8.53
2023-04-15T16:20:43.765Z,8.53
2023-04-15T16:21:43.754Z,8.53
2023-04-15T16:22:43.764Z,8.52
2023-04-15T16:23:43.749Z,8.48
2023-04-15T16:24:43.706Z,8.53
2023-04-15T16:25:43.693Z,8.53
2023-04-15T16:26:43.705Z,8.52
2023-04-15T16:27:57.113Z,8.52
2023-04-15T16:28:43.693Z,8.53
2023-04-15T16:29:43.666Z,8.53
2023-04-15T16:30:43.653Z,8.52
2023-04-15T16:31:43.690Z,8.52
2023-04-15T16:32:43.716Z,8.52
2023-04-15T16:33:43.603Z,8.48
2023-04-15T16:34:43.613Z,8.48
2023-04-15T16:35:43.595Z,8.52
2023-04-15T16:36:43.604Z,8.53
2023-04-15T16:37:43.585Z,8.52
2023-04-15T16:38:43.569Z,8.55
2023-04-15T16:39:43.561Z,8.52
2023-04-15T16:40:43.549Z,8.52
2023-04-15T16:41:43.552Z,8.52
2023-04-15T16:42:43.555Z,8.53
2023-04-15T16:43:43.548Z,8.53
2023-04-15T16:44:43.502Z,8.53
2023-04-15T16:45:43.514Z,8.55
2023-04-15T16:46:43.517Z,8.53
2023-04-15T16:47:43.519Z,8.55
2023-04-15T16:48:43.466Z,8.48
2023-04-15T16:49:43.449Z,8.55
2023-04-15T16:50:43.477Z,8.52
2023-04-15T16:51:43.414Z,8.52
2023-04-15T16:52:43.432Z,8.52
2023-04-15T16:53:43.398Z,8.50
2023-04-15T16:54:43.407Z,8.52
2023-04-15T16:55:43.380Z,8.53
2023-04-15T16:56:43.379Z,8.48
2023-04-15T16:58:01.723Z,8.48
2023-04-15T16:58:43.371Z,8.47
2023-04-15T16:59:43.409Z,8.47
2023-04-15T17:00:43.344Z,8.48
2023-04-15T17:01:43.373Z,8.50
2023-04-15T17:02:43.425Z,8.48
2023-04-15T17:03:43.520Z,8.45
2023-04-15T17:04:43.326Z,8.48
2023-04-15T17:05:43.323Z,8.50
2023-04-15T17:06:43.269Z,8.53
2023-04-15T17:07:43.275Z,8.48
2023-04-15T17:08:43.260Z,8.50
2023-04-15T17:09:43.218Z,8.52
2023-04-15T17:10:43.260Z,8.47
2023-04-15T17:11:43.275Z,8.47
2023-04-15T17:12:43.201Z,8.50
2023-04-15T17:13:43.184Z,8.48
2023-04-15T17:14:43.164Z,8.50
2023-04-15T17:15:43.280Z,8.48
2023-04-15T17:16:43.202Z,8.45
2023-04-15T17:17:43.184Z,8.47
2023-04-15T17:18:43.150Z,8.48
2023-04-15T17:19:43.119Z,8.48